createdAt,value
2019-04-07T00:00:42.827Z,47.27
2019-04-07T00:03:10.542Z,52.57
2019-04-07T00:05:37.810Z,54.30
2019-04-07T00:08:04.817Z,51.07
2019-04-07T00:10:31.618Z,53.07
2019-04-07T00:12:58.423Z,52.83
2019-04-07T00:15:25.914Z,50.40
2019-04-07T00:17:54.305Z,48.73
2019-04-07T00:20:21.255Z,46.53
2019-04-07T00:22:49.001Z,51.20
2019-04-07T00:25:17.722Z,51.73
2019-04-07T00:27:44.414Z,47.03
2019-04-07T00:30:12.538Z,50.13
2019-04-07T00:32:39.249Z,47.77
2019-04-07T00:35:06.008Z,47.73
2019-04-07T00:37:33.704Z,52.00
2019-04-07T00:40:00.433Z,50.47
2019-04-07T00:42:27.533Z,53.53
2019-04-07T00:44:54.482Z,52.83
2019-04-07T00:47:21.781Z,49.47
2019-04-07T00:49:48.599Z,50.63
2019-04-07T00:52:17.315Z,55.77
2019-04-07T00:54:44.448Z,55.50
2019-04-07T00:57:11.023Z,48.33
2019-04-07T00:59:37.661Z,45.30
2019-04-07T01:02:04.427Z,53.03
2019-04-07T01:04:31.902Z,51.67
2019-04-07T01:06:59.152Z,48.53
2019-04-07T01:09:25.867Z,48.03
2019-04-07T01:11:52.448Z,54.17
2019-04-07T01:14:21.438Z,50.43
2019-04-07T01:16:48.991Z,48.97
2019-04-07T01:19:15.589Z,51.57
2019-04-07T01:21:42.357Z,49.30
2019-04-07T01:24:12.286Z,51.10
2019-04-07T01:26:39.644Z,51.20
2019-04-07T01:29:06.479Z,56.23
2019-04-07T01:31:33.367Z,58.30
2019-04-07T01:34:00.049Z,57.67
2019-04-07T01:36:28.337Z,52.23
2019-04-07T01:38:55.045Z,56.07
2019-04-07T01:41:51.056Z,54.37
2019-04-07T01:44:31.434Z,51.13
2019-04-07T01:50:28.589Z,55.90
2019-04-07T01:53:00.580Z,57.33
2019-04-07T01:55:52.881Z,59.93
2019-04-07T01:58:30.800Z,56.53
2019-04-07T02:01:23.100Z,54.27
2019-04-07T02:04:00.040Z,56.03
2019-04-07T02:06:36.554Z,52.47
2019-04-07T02:09:18.310Z,50.27
2019-04-07T02:12:03.508Z,53.73
2019-04-07T02:14:46.714Z,55.50
2019-04-07T02:17:20.995Z,52.47
2019-04-07T02:20:01.301Z,56.33
2019-04-07T02:22:39.315Z,55.40
2019-04-07T02:25:31.786Z,56.47
2019-04-07T02:28:07.527Z,61.70
2019-04-07T02:31:02.758Z,53.07
2019-04-07T02:33:39.333Z,56.37
2019-04-07T02:36:23.923Z,56.47
2019-04-07T02:39:02.939Z,50.80
2019-04-07T02:41:42.092Z,56.73
2019-04-07T02:44:27.818Z,50.07
2019-04-07T02:47:01.746Z,54.97
2019-04-07T02:49:39.289Z,56.13
2019-04-07T02:52:13.095Z,61.10
2019-04-07T02:54:55.851Z,57.07
2019-04-07T02:57:40.434Z,54.30
2019-04-07T03:00:22.363Z,61.70
2019-04-07T03:03:16.958Z,67.25
2019-04-07T03:05:54.287Z,58.30
2019-04-07T03:08:42.739Z,59.27
2019-04-07T03:11:42.825Z,59.17
2019-04-07T03:14:17.806Z,56.57
2019-04-07T03:16:59.970Z,65.17
2019-04-07T03:19:33.377Z,57.80
2019-04-07T03:22:20.598Z,58.50
2019-04-07T03:25:04.557Z,60.33
2019-04-07T03:27:53.589Z,57.70
2019-04-07T03:30:45.343Z,55.90
2019-04-07T03:33:31.881Z,59.53
2019-04-07T03:36:06.851Z,54.10
2019-04-07T03:38:48.135Z,55.13
2019-04-07T03:41:20.637Z,61.00
2019-04-07T03:43:54.990Z,60.27
2019-04-07T03:46:32.583Z,59.80
2019-04-07T03:49:11.297Z,57.53
2019-04-07T03:51:58.092Z,61.60
2019-04-07T03:54:43.413Z,61.83
2019-04-07T03:57:20.288Z,56.83
2019-04-07T04:00:06.623Z,58.70
2019-04-07T04:02:56.779Z,56.13
2019-04-07T04:05:34.809Z,62.03
2019-04-07T04:08:11.313Z,60.40
2019-04-07T04:10:45.400Z,55.90
2019-04-07T04:13:20.509Z,58.17
2019-04-07T04:15:57.092Z,54.67
2019-04-07T04:18:24.518Z,55.57
2019-04-07T04:20:52.875Z,57.53
2019-04-07T04:23:20.180Z,57.43
2019-04-07T04:25:47.068Z,60.43
2019-04-07T04:28:16.384Z,57.43
2019-04-07T04:30:44.114Z,55.57
2019-04-07T04:33:12.470Z,55.27
2019-04-07T04:35:39.164Z,57.77
2019-04-07T04:38:06.151Z,56.93
2019-04-07T04:40:33.196Z,56.67
2019-04-07T04:42:59.902Z,57.30
2019-04-07T04:45:27.525Z,56.77
2019-04-07T04:47:56.094Z,53.90
2019-04-07T04:50:23.704Z,54.50
2019-04-07T04:52:52.340Z,60.50
2019-04-07T04:55:20.418Z,58.40
2019-04-07T04:57:47.948Z,57.50
2019-04-07T05:00:15.835Z,58.73
2019-04-07T05:02:44.172Z,61.27
2019-04-07T05:05:11.209Z,57.30
2019-04-07T05:07:50.087Z,55.90
2019-04-07T05:10:07.997Z,60.93
2019-04-07T05:12:35.132Z,56.40
2019-04-07T05:15:01.964Z,58.97
2019-04-07T05:17:28.827Z,55.47
2019-04-07T05:19:55.520Z,55.03
2019-04-07T05:22:22.552Z,61.00
2019-04-07T05:24:50.559Z,66.00
2019-04-07T05:27:17.462Z,59.07
2019-04-07T05:29:44.691Z,59.60
2019-04-07T05:32:12.208Z,55.20
2019-04-07T05:34:42.328Z,60.03
2019-04-07T05:37:09.858Z,55.47
2019-04-07T05:39:37.216Z,58.50
2019-04-07T05:42:04.655Z,58.03
2019-04-07T05:44:32.016Z,58.37
2019-04-07T05:46:59.081Z,57.27
2019-04-07T05:49:25.833Z,59.37
2019-04-07T05:51:52.558Z,58.27
2019-04-07T05:54:20.769Z,58.80
2019-04-07T05:56:48.255Z,56.77
2019-04-07T05:59:15.656Z,60.87
2019-04-07T06:01:43.420Z,57.00
2019-04-07T06:04:14.355Z,58.13
2019-04-07T06:06:41.460Z,55.83
2019-04-07T06:09:08.053Z,51.80
2019-04-07T06:11:36.137Z,53.23
2019-04-07T06:14:03.191Z,50.23
2019-04-07T06:16:30.662Z,47.13
2019-04-07T06:18:57.763Z,53.37
2019-04-07T06:21:24.555Z,46.60
2019-04-07T06:23:59.404Z,51.03
2019-04-07T06:26:25.600Z,52.67
2019-04-07T06:28:57.385Z,42.77
2019-04-07T06:31:24.403Z,44.03
2019-04-07T06:33:49.974Z,40.63
2019-04-07T06:36:18.678Z,42.03
2019-04-07T06:38:51.238Z,43.80
2019-04-07T06:41:16.122Z,43.13
2019-04-07T06:43:47.967Z,40.83
2019-04-07T06:46:35.711Z,46.63
2019-04-07T06:49:38.101Z,41.17
2019-04-07T06:52:24.795Z,38.33
2019-04-07T06:55:00.562Z,37.77
2019-04-07T06:57:46.629Z,36.10
2019-04-07T07:00:36.511Z,36.73
2019-04-07T07:03:19.570Z,37.33
2019-04-07T07:06:08.544Z,36.13
2019-04-07T07:08:45.869Z,35.80
2019-04-07T07:11:30.028Z,31.77
2019-04-07T07:14:34.930Z,35.47
2019-04-07T07:17:16.966Z,37.47
2019-04-07T07:20:04.215Z,34.48
2019-04-07T07:22:45.982Z,35.28
2019-04-07T07:25:12.393Z,35.43
2019-04-07T07:27:41.594Z,34.47
2019-04-07T07:30:09.775Z,35.60
2019-04-07T07:32:37.399Z,32.17
2019-04-07T07:35:05.320Z,32.50
2019-04-07T07:37:33.363Z,31.05
2019-04-07T07:39:59.956Z,32.98
2019-04-07T07:42:26.811Z,34.47
2019-04-07T07:44:53.650Z,32.93
2019-04-07T07:47:22.535Z,36.15
2019-04-07T07:49:48.854Z,34.85
2019-04-07T07:52:18.558Z,31.15
2019-04-07T07:54:46.114Z,29.48
2019-04-07T07:57:13.375Z,34.58
2019-04-07T07:59:40.438Z,33.35
2019-04-07T08:02:07.583Z,33.63
2019-04-07T08:04:34.596Z,32.93
2019-04-07T08:07:02.598Z,30.68
2019-04-07T08:09:29.359Z,31.23
2019-04-07T08:11:56.153Z,33.33
2019-04-07T08:14:22.875Z,32.15
2019-04-07T08:16:52.391Z,32.33
2019-04-07T08:19:20.120Z,31.37
2019-04-07T08:21:50.322Z,29.10
2019-04-07T08:24:19.022Z,32.98
2019-04-07T08:26:45.939Z,32.03
2019-04-07T08:29:13.900Z,31.48
2019-04-07T08:31:41.030Z,34.73
2019-04-07T08:34:07.833Z,32.60
2019-04-07T08:36:34.857Z,31.85
2019-04-07T08:39:01.855Z,31.27
2019-04-07T08:41:30.126Z,28.90
2019-04-07T08:44:00.586Z,31.48
2019-04-07T08:46:32.283Z,29.85
2019-04-07T08:49:02.166Z,30.55
2019-04-07T08:51:31.663Z,26.35
2019-04-07T08:53:59.772Z,29.65
2019-04-07T08:56:26.898Z,29.60
2019-04-07T08:58:54.395Z,25.95
2019-04-07T09:01:21.846Z,26.80
2019-04-07T09:03:50.760Z,22.52
2019-04-07T09:06:17.419Z,27.25
2019-04-07T09:08:44.057Z,24.30
2019-04-07T09:11:13.180Z,28.00
2019-04-07T09:13:41.700Z,24.10
2019-04-07T09:16:28.025Z,24.90
2019-04-07T09:19:09.423Z,25.68
2019-04-07T09:21:50.246Z,22.98
2019-04-07T09:24:38.153Z,22.87
2019-04-07T09:27:23.571Z,22.75
2019-04-07T09:30:01.178Z,24.47
2019-04-07T09:32:57.846Z,22.42
2019-04-07T09:35:47.595Z,22.32
2019-04-07T09:38:33.396Z,20.97
2019-04-07T09:41:13.167Z,23.30
2019-04-07T09:44:05.620Z,23.67
2019-04-07T09:46:53.028Z,21.68
2019-04-07T09:49:56.620Z,21.37
2019-04-07T09:52:34.154Z,20.60
2019-04-07T09:55:16.695Z,19.82
2019-04-07T09:58:12.019Z,21.02
2019-04-07T10:00:46.615Z,20.10
2019-04-07T10:03:31.581Z,20.80
2019-04-07T10:06:18.925Z,20.08
2019-04-07T10:09:12.063Z,20.45
2019-04-07T10:12:00.414Z,20.37
2019-04-07T10:14:45.352Z,18.98
2019-04-07T10:17:30.042Z,18.62
2019-04-07T10:20:22.017Z,19.57
2019-04-07T10:22:58.684Z,17.70
2019-04-07T10:26:04.012Z,18.07
2019-04-07T10:28:51.470Z,17.82
2019-04-07T10:31:25.476Z,16.95
2019-04-07T10:34:06.154Z,19.00
2019-04-07T10:36:59.140Z,19.15
2019-04-07T10:39:49.752Z,17.90
2019-04-07T10:42:23.581Z,16.97
2019-04-07T10:44:58.743Z,17.92
2019-04-07T10:47:44.812Z,16.07
2019-04-07T10:50:43.852Z,15.63
2019-04-07T10:53:31.312Z,14.18
2019-04-07T10:56:04.473Z,12.82
2019-04-07T10:58:42.402Z,14.05
2019-04-07T11:01:22.924Z,13.08
2019-04-07T11:04:00.654Z,13.62
2019-04-07T11:07:06.450Z,13.20
2019-04-07T11:09:54.246Z,12.47
2019-04-07T11:12:39.836Z,14.55
2019-04-07T11:15:27.564Z,12.45
2019-04-07T11:18:17.494Z,13.32
2019-04-07T11:21:03.477Z,11.55
2019-04-07T11:23:39.197Z,9.80
2019-04-07T11:26:25.282Z,11.43
2019-04-07T11:29:08.521Z,11.50
2019-04-07T11:31:59.407Z,11.60
2019-04-07T11:35:04.911Z,11.03
2019-04-07T11:37:55.585Z,11.57
2019-04-07T11:40:52.201Z,11.45
2019-04-07T11:43:29.505Z,10.80
2019-04-07T11:46:18.762Z,11.53
2019-04-07T11:48:54.839Z,10.88
2019-04-07T11:51:29.228Z,11.53
2019-04-07T11:54:25.162Z,10.48
2019-04-07T11:57:15.387Z,10.13
2019-04-07T12:00:14.284Z,10.18
2019-04-07T12:02:54.473Z,11.28
2019-04-07T12:05:39.823Z,11.30
2019-04-07T12:08:18.572Z,11.03
2019-04-07T12:11:13.598Z,10.95
2019-04-07T12:13:59.757Z,10.63
2019-04-07T12:16:41.703Z,11.55
2019-04-07T12:19:22.810Z,13.32
2019-04-07T12:22:10.454Z,12.07
2019-04-07T12:25:00.732Z,12.25
2019-04-07T12:27:58.121Z,11.12
2019-04-07T12:30:48.808Z,9.83
2019-04-07T12:33:22.994Z,12.13
2019-04-07T12:35:59.085Z,10.48
2019-04-07T12:38:35.012Z,10.28
2019-04-07T12:41:23.026Z,11.03
2019-04-07T12:44:10.406Z,10.88
2019-04-07T12:46:50.983Z,11.68
2019-04-07T12:49:43.556Z,12.53
2019-04-07T12:52:17.375Z,12.03
2019-04-07T12:54:57.060Z,11.63
2019-04-07T12:57:30.933Z,13.32
2019-04-07T13:00:30.894Z,11.73
2019-04-07T13:03:08.814Z,11.63
2019-04-07T13:05:54.182Z,10.80
2019-04-07T13:08:40.704Z,12.10
2019-04-07T13:11:24.722Z,11.28
2019-04-07T13:14:03.767Z,12.23
2019-04-07T13:17:00.197Z,11.35
2019-04-07T13:19:43.814Z,11.25
2019-04-07T13:22:19.324Z,11.73
2019-04-07T13:25:14.329Z,10.78
2019-04-07T13:27:58.954Z,11.50
2019-04-07T13:30:50.024Z,13.90
2019-04-07T13:33:28.971Z,11.53
2019-04-07T13:36:22.556Z,13.13
2019-04-07T13:39:08.328Z,12.15
2019-04-07T13:41:55.721Z,10.68
2019-04-07T13:44:41.659Z,11.33
2019-04-07T13:47:28.752Z,12.98
2019-04-07T13:50:12.787Z,12.18
2019-04-07T13:53:05.627Z,16.73
2019-04-07T13:55:48.730Z,12.58
2019-04-07T13:58:35.708Z,14.10
2019-04-07T14:01:21.031Z,12.45
2019-04-07T14:04:16.723Z,14.78
2019-04-07T14:06:49.680Z,14.40
2019-04-07T14:09:35.362Z,13.18
2019-04-07T14:12:18.924Z,14.45
2019-04-07T14:15:00.215Z,12.75
2019-04-07T14:17:46.616Z,13.30
2019-04-07T14:20:24.463Z,13.35
2019-04-07T14:23:12.018Z,13.08
2019-04-07T14:25:47.061Z,11.68
2019-04-07T14:28:31.040Z,12.00
2019-04-07T14:31:07.639Z,10.90
2019-04-07T14:33:57.335Z,15.63
2019-04-07T14:36:39.205Z,12.58
2019-04-07T14:39:12.838Z,13.15
2019-04-07T14:42:04.604Z,10.98
2019-04-07T14:44:47.943Z,11.10
2019-04-07T14:47:41.427Z,13.55
2019-04-07T14:50:42.862Z,11.70
2019-04-07T14:53:45.398Z,11.85
2019-04-07T14:56:22.561Z,11.28
2019-04-07T14:58:58.561Z,10.95
2019-04-07T15:01:36.878Z,19.65
2019-04-07T15:04:05.143Z,12.63
2019-04-07T15:06:34.535Z,10.68
2019-04-07T15:09:10.185Z,10.32
2019-04-07T15:11:51.012Z,10.53
2019-04-07T15:14:18.092Z,11.40
2019-04-07T15:16:45.059Z,11.33
2019-04-07T15:19:11.704Z,10.90
2019-04-07T15:21:39.030Z,9.68
2019-04-07T15:24:07.217Z,11.57
2019-04-07T15:26:34.735Z,9.88
2019-04-07T15:29:04.679Z,10.28
2019-04-07T15:31:33.120Z,9.70
2019-04-07T15:34:06.362Z,11.03
2019-04-07T15:36:31.541Z,9.70
2019-04-07T15:38:59.547Z,10.10
2019-04-07T15:41:27.577Z,9.98
2019-04-07T15:43:55.266Z,10.50
2019-04-07T15:46:22.517Z,10.00
2019-04-07T15:48:49.858Z,11.95
2019-04-07T15:51:17.458Z,12.10
2019-04-07T15:53:49.768Z,12.47
2019-04-07T15:56:15.668Z,10.75
2019-04-07T15:58:41.952Z,12.25
2019-04-07T16:01:10.440Z,11.10
2019-04-07T16:03:38.793Z,13.00
2019-04-07T16:06:06.067Z,12.20
2019-04-07T16:08:33.726Z,10.65
2019-04-07T16:11:01.905Z,10.15
2019-04-07T16:13:29.238Z,12.13
2019-04-07T16:15:56.154Z,10.40
2019-04-07T16:18:23.253Z,10.50
2019-04-07T16:20:50.686Z,11.18
2019-04-07T16:23:19.267Z,13.38
2019-04-07T16:25:47.502Z,12.13
2019-04-07T16:28:16.033Z,34.78
2019-04-07T16:30:43.353Z,11.48
2019-04-07T16:33:10.082Z,14.13
2019-04-07T16:35:37.132Z,10.60
2019-04-07T16:38:05.211Z,10.82
2019-04-07T16:40:32.420Z,9.78
2019-04-07T16:43:09.552Z,10.25
2019-04-07T16:45:28.284Z,11.35
2019-04-07T16:47:55.059Z,10.63
2019-04-07T16:50:21.638Z,15.43
2019-04-07T16:52:48.528Z,11.93
2019-04-07T16:55:36.884Z,12.45
2019-04-07T16:58:04.573Z,10.15
2019-04-07T17:00:31.265Z,11.97
2019-04-07T17:02:57.753Z,10.58
2019-04-07T17:05:25.599Z,13.08
2019-04-07T17:07:54.827Z,13.25
2019-04-07T17:10:21.132Z,12.37
2019-04-07T17:12:49.589Z,14.60
2019-04-07T17:15:16.255Z,13.50
2019-04-07T17:17:43.462Z,12.82
2019-04-07T17:20:10.239Z,10.75
2019-04-07T17:22:38.209Z,12.80
2019-04-07T17:25:09.915Z,13.58
2019-04-07T17:27:40.885Z,12.98
2019-04-07T17:30:05.434Z,13.98
2019-04-07T17:32:35.829Z,11.50
2019-04-07T17:35:07.899Z,15.15
2019-04-07T17:37:37.856Z,16.25
2019-04-07T17:40:15.635Z,17.55
2019-04-07T17:42:50.769Z,16.17
2019-04-07T17:45:37.478Z,13.60
2019-04-07T17:48:23.342Z,17.27
2019-04-07T17:51:06.330Z,19.05
2019-04-07T17:53:49.585Z,19.17
2019-04-07T17:56:30.330Z,19.90
2019-04-07T17:59:22.071Z,15.85
2019-04-07T18:02:15.091Z,16.42
2019-04-07T18:05:04.441Z,17.10
2019-04-07T18:07:50.689Z,14.43
2019-04-07T18:10:29.487Z,19.70
2019-04-07T18:13:16.607Z,16.60
2019-04-07T18:16:01.692Z,20.23
2019-04-07T18:18:36.674Z,16.13
2019-04-07T18:21:13.407Z,18.65
2019-04-07T18:24:08.302Z,16.23
2019-04-07T18:26:53.675Z,15.70
2019-04-07T18:29:48.030Z,18.25
2019-04-07T18:32:43.113Z,15.43
2019-04-07T18:35:32.638Z,17.32
2019-04-07T18:38:17.386Z,16.67
2019-04-07T18:41:10.116Z,17.32
2019-04-07T18:43:57.818Z,20.50
2019-04-07T18:46:27.952Z,18.42
2019-04-07T18:49:18.035Z,19.47
2019-04-07T18:52:01.672Z,14.13
2019-04-07T18:54:39.934Z,16.10
2019-04-07T18:57:35.979Z,15.47
2019-04-07T19:00:42.319Z,20.12
2019-04-07T19:03:45.297Z,18.20
2019-04-07T19:06:31.259Z,17.50
2019-04-07T19:09:08.086Z,17.12
2019-04-07T19:11:47.229Z,17.00
2019-04-07T19:14:44.308Z,19.48
2019-04-07T19:17:27.267Z,17.43
2019-04-07T19:20:34.129Z,18.13
2019-04-07T19:23:18.465Z,16.10
2019-04-07T19:25:59.782Z,17.73
2019-04-07T19:28:49.762Z,18.03
2019-04-07T19:31:48.018Z,16.73
2019-04-07T19:34:32.812Z,17.13
2019-04-07T19:37:22.463Z,18.40
2019-04-07T19:40:04.341Z,14.93
2019-04-07T19:42:48.227Z,21.13
2019-04-07T19:45:32.994Z,19.27
2019-04-07T19:48:28.803Z,19.43
2019-04-07T19:51:14.288Z,16.77
2019-04-07T19:54:08.323Z,18.87
2019-04-07T19:56:42.444Z,18.07
2019-04-07T19:59:26.779Z,18.13
2019-04-07T20:02:13.433Z,18.43
2019-04-07T20:05:04.157Z,17.03
2019-04-07T20:07:50.824Z,20.57
2019-04-07T20:10:38.018Z,16.83
2019-04-07T20:13:20.000Z,17.13
2019-04-07T20:15:59.185Z,16.87
2019-04-07T20:18:37.400Z,18.30
2019-04-07T20:21:35.104Z,16.73
2019-04-07T20:24:11.275Z,23.10
2019-04-07T20:26:58.740Z,22.87
2019-04-07T20:29:44.762Z,25.30
2019-04-07T20:32:34.751Z,17.37
2019-04-07T20:35:19.713Z,21.02
2019-04-07T20:38:07.091Z,22.53
2019-04-07T20:40:59.919Z,19.23
2019-04-07T20:43:45.187Z,17.83
2019-04-07T20:46:23.800Z,17.63
2019-04-07T20:49:13.628Z,18.60
2019-04-07T20:52:16.995Z,19.33
2019-04-07T20:55:09.447Z,19.37
2019-04-07T20:58:14.608Z,19.97
2019-04-07T21:00:57.692Z,20.37
2019-04-07T21:03:45.075Z,19.77
2019-04-07T21:06:40.557Z,18.37
2019-04-07T21:09:21.562Z,18.97
2019-04-07T21:11:59.617Z,20.63
2019-04-07T21:14:45.348Z,18.10
2019-04-07T21:17:32.477Z,17.77
2019-04-07T21:20:15.575Z,20.00
2019-04-07T21:23:01.734Z,21.03
2019-04-07T21:25:43.346Z,19.50
2019-04-07T21:28:28.943Z,18.10
2019-04-07T21:31:03.412Z,18.00
2019-04-07T21:33:44.338Z,18.93
2019-04-07T21:36:30.071Z,21.37
2019-04-07T21:39:08.380Z,17.80
2019-04-07T21:42:00.497Z,18.47
2019-04-07T21:44:50.194Z,19.70
2019-04-07T21:47:58.002Z,19.17
2019-04-07T21:50:44.789Z,21.57
2019-04-07T21:53:41.035Z,24.03
2019-04-07T21:56:24.788Z,19.93
2019-04-07T21:59:07.745Z,23.00
2019-04-07T22:02:03.207Z,21.67
2019-04-07T22:04:50.626Z,21.53
2019-04-07T22:07:27.647Z,22.13
2019-04-07T22:09:58.847Z,22.20
2019-04-07T22:12:29.818Z,19.40
2019-04-07T22:14:56.289Z,23.97
2019-04-07T22:17:23.394Z,21.17
2019-04-07T22:19:50.212Z,20.93
2019-04-07T22:22:16.903Z,24.47
2019-04-07T22:24:44.835Z,20.83
2019-04-07T22:27:11.666Z,25.13
2019-04-07T22:29:38.372Z,22.37
2019-04-07T22:32:05.308Z,21.73
2019-04-07T22:34:33.781Z,24.70
2019-04-07T22:37:00.935Z,24.57
2019-04-07T22:39:29.795Z,22.43
2019-04-07T22:41:57.164Z,24.07
2019-04-07T22:44:24.761Z,22.33
2019-04-07T22:46:52.711Z,29.60
2019-04-07T22:49:19.839Z,26.97
2019-04-07T22:51:48.285Z,23.90
2019-04-07T22:54:16.726Z,27.37
2019-04-07T22:56:44.572Z,22.27
2019-04-07T22:59:12.794Z,24.60
2019-04-07T23:01:39.645Z,23.53
2019-04-07T23:04:07.105Z,24.57
2019-04-07T23:06:34.233Z,24.13
2019-04-07T23:09:01.550Z,24.63
2019-04-07T23:11:30.013Z,24.80
2019-04-07T23:13:56.747Z,26.10
2019-04-07T23:16:24.032Z,24.17
2019-04-07T23:18:52.080Z,29.00
2019-04-07T23:21:19.246Z,28.03
2019-04-07T23:23:46.233Z,30.10
2019-04-07T23:26:13.865Z,29.03
2019-04-07T23:28:40.577Z,35.27
2019-04-07T23:31:07.530Z,34.57
2019-04-07T23:33:34.780Z,28.40
2019-04-07T23:36:01.823Z,28.10
2019-04-07T23:38:28.943Z,29.83
2019-04-07T23:40:55.671Z,29.20
2019-04-07T23:43:22.440Z,31.77
2019-04-07T23:45:49.651Z,25.27
2019-04-07T23:48:17.984Z,26.90
2019-04-07T23:50:47.733Z,29.90
2019-04-07T23:53:50.807Z,30.50
2019-04-07T23:56:17.709Z,32.60
2019-04-07T23:58:45.559Z,27.17
